Jamaica, IA (50128)

8:18 AM CST on December 04, 2016 (GMT -0600)
Farm | | Change Station

Elev 1096 ft 41.94 °N, 94.25 °W | Updated 3 minutes ago

Overcast
Overcast
32.8 °F
Feels Like 28 °F
N
5.0
Wind Variable Wind from SSW
Gusts 5.0 mph

Today
High -- | Low -- °F
--% Chance of Precip.
Yesterday
High -- | Low -- °F
Precip. -- in
Pressure 29.96 in
Visibility 3.0 miles
Clouds Overcast 300 ft
Windchill 28 °F
Dew Point 32 °F
Humidity 98%
Rainfall 0.00 in
Snow Depth Not available.
7:28 AM 4:46 PM
Waxing Crescent, 23% visible
METAR KPRO 041415Z AUTO 18006KT 3SM BR OVC003 01/01 A2996 RMK AO2 T00060006
Pressure 29.96 in
Visibility 3.0 miles
Clouds Overcast 300 ft
Windchill 28 °F
Dew Point 32 °F
Humidity 98%
Rainfall 0.00 in
Snow Depth Not available.
7:28 AM 4:46 PM
Waxing Crescent, 23% visible
METAR KPRO 041415Z AUTO 18006KT 3SM BR OVC003 01/01 A2996 RMK AO2 T00060006

10-Day Weather Forecast

Almanac

Astronomy

Dec. 04, 2016 Rise Set
Actual Time
Civil Twilight
Nautical Twilight
Astronomical Twilight
Moon
Length of Visible Light
Length of Day
Tomorrow will be .
, % of the Moon is Illuminated

Today's Extremes

State Highs State Lows

Community

WunderPhotos

Upload Photos

1,955,598 photos uploaded!

WunderBlog® & News

Nearby

Air Quality

  Air Quality AQ Index Pollutant
Not available.

Snow Depth

Station Depth Elevation

Earthquake Activity

City Distance Mag. Time & Date
Minimum magnitude displayed is 2.5.

Coastal Water Temperatures

Place Temperature

Stations

Nearby Weather Stations

Station Location Temp. Windchill Dew Point Humidity Wind Precip. Elev Updated Type
                   

Watches & Warnings

There are currently no watches in effect.